sensor_id;sensor_type;location;lat;lon;timestamp;P1;durP1;ratioP1;P2;durP2;ratioP2
10719;SDS011;5411;58.386;15.560;2023-06-22T00:01:25;12.00;;;9.20;;
10719;SDS011;5411;58.386;15.560;2023-06-22T00:03:53;10.40;;;9.23;;
10719;SDS011;5411;58.386;15.560;2023-06-22T00:06:22;10.30;;;8.93;;
10719;SDS011;5411;58.386;15.560;2023-06-22T00:08:50;12.00;;;9.07;;
10719;SDS011;5411;58.386;15.560;2023-06-22T00:11:20;10.30;;;8.67;;
10719;SDS011;5411;58.386;15.560;2023-06-22T00:13:49;10.57;;;9.47;;
10719;SDS011;5411;58.386;15.560;2023-06-22T00:16:18;12.83;;;9.40;;
10719;SDS011;5411;58.386;15.560;2023-06-22T00:18:48;10.77;;;9.50;;
10719;SDS011;5411;58.386;15.560;2023-06-22T00:21:17;12.43;;;9.87;;
10719;SDS011;5411;58.386;15.560;2023-06-22T00:23:47;10.83;;;9.13;;
10719;SDS011;5411;58.386;15.560;2023-06-22T00:26:16;11.43;;;8.87;;
10719;SDS011;5411;58.386;15.560;2023-06-22T00:28:46;10.50;;;8.57;;
10719;SDS011;5411;58.386;15.560;2023-06-22T00:31:17;11.70;;;8.40;;
10719;SDS011;5411;58.386;15.560;2023-06-22T00:33:46;11.43;;;8.40;;
10719;SDS011;5411;58.386;15.560;2023-06-22T00:36:17;9.50;;;8.07;;
10719;SDS011;5411;58.386;15.560;2023-06-22T00:38:46;12.13;;;8.50;;
10719;SDS011;5411;58.386;15.560;2023-06-22T00:41:20;9.93;;;8.07;;
10719;SDS011;5411;58.386;15.560;2023-06-22T00:43:49;8.73;;;7.53;;
10719;SDS011;5411;58.386;15.560;2023-06-22T00:46:18;9.00;;;7.17;;
10719;SDS011;5411;58.386;15.560;2023-06-22T00:48:49;6.73;;;6.07;;
10719;SDS011;5411;58.386;15.560;2023-06-22T00:51:27;9.03;;;6.60;;
10719;SDS011;5411;58.386;15.560;2023-06-22T00:53:55;8.37;;;6.70;;
10719;SDS011;5411;58.386;15.560;2023-06-22T00:56:24;9.33;;;6.60;;
10719;SDS011;5411;58.386;15.560;2023-06-22T00:59:00;11.30;;;6.60;;
10719;SDS011;5411;58.386;15.560;2023-06-22T01:01:31;9.33;;;7.10;;
10719;SDS011;5411;58.386;15.560;2023-06-22T01:04:00;7.43;;;5.67;;
10719;SDS011;5411;58.386;15.560;2023-06-22T01:06:29;7.17;;;6.47;;
10719;SDS011;5411;58.386;15.560;2023-06-22T01:09:13;7.70;;;6.27;;
10719;SDS011;5411;58.386;15.560;2023-06-22T01:11:48;7.60;;;6.40;;
10719;SDS011;5411;58.386;15.560;2023-06-22T01:14:24;14.13;;;7.27;;
10719;SDS011;5411;58.386;15.560;2023-06-22T01:17:01;7.60;;;6.20;;
10719;SDS011;5411;58.386;15.560;2023-06-22T01:19:43;7.13;;;6.20;;
10719;SDS011;5411;58.386;15.560;2023-06-22T01:22:19;8.13;;;5.00;;
10719;SDS011;5411;58.386;15.560;2023-06-22T01:24:52;7.03;;;4.70;;
10719;SDS011;5411;58.386;15.560;2023-06-22T01:27:31;5.80;;;4.70;;
10719;SDS011;5411;58.386;15.560;2023-06-22T01:30:09;5.87;;;4.20;;
10719;SDS011;5411;58.386;15.560;2023-06-22T01:32:39;9.97;;;5.43;;
10719;SDS011;5411;58.386;15.560;2023-06-22T01:35:09;6.23;;;4.47;;
10719;SDS011;5411;58.386;15.560;2023-06-22T01:37:39;7.13;;;4.27;;
10719;SDS011;5411;58.386;15.560;2023-06-22T01:40:17;7.23;;;4.33;;
10719;SDS011;5411;58.386;15.560;2023-06-22T01:42:50;7.30;;;4.10;;
10719;SDS011;5411;58.386;15.560;2023-06-22T01:45:20;7.07;;;4.20;;
10719;SDS011;5411;58.386;15.560;2023-06-22T01:47:52;7.53;;;4.40;;
10719;SDS011;5411;58.386;15.560;2023-06-22T01:50:21;6.23;;;4.43;;
10719;SDS011;5411;58.386;15.560;2023-06-22T01:52:53;5.03;;;4.17;;
10719;SDS011;5411;58.386;15.560;2023-06-22T01:55:21;6.00;;;4.27;;
10719;SDS011;5411;58.386;15.560;2023-06-22T01:57:49;8.07;;;4.43;;
10719;SDS011;5411;58.386;15.560;2023-06-22T02:00:20;7.17;;;4.40;;
10719;SDS011;5411;58.386;15.560;2023-06-22T02:02:54;4.37;;;3.97;;
10719;SDS011;5411;58.386;15.560;2023-06-22T02:05:36;7.07;;;3.80;;
10719;SDS011;5411;58.386;15.560;2023-06-22T02:08:19;5.60;;;3.90;;
10719;SDS011;5411;58.386;15.560;2023-06-22T02:10:52;4.93;;;3.67;;
10719;SDS011;5411;58.386;15.560;2023-06-22T02:13:23;5.00;;;3.50;;
10719;SDS011;5411;58.386;15.560;2023-06-22T02:15:57;6.33;;;4.03;;
10719;SDS011;5411;58.386;15.560;2023-06-22T02:18:25;5.67;;;4.00;;
10719;SDS011;5411;58.386;15.560;2023-06-22T02:20:57;5.20;;;3.97;;
10719;SDS011;5411;58.386;15.560;2023-06-22T02:23:29;7.37;;;3.93;;
10719;SDS011;5411;58.386;15.560;2023-06-22T02:26:02;5.93;;;4.00;;
10719;SDS011;5411;58.386;15.560;2023-06-22T02:28:31;4.87;;;3.73;;
10719;SDS011;5411;58.386;15.560;2023-06-22T02:31:00;5.27;;;4.03;;
10719;SDS011;5411;58.386;15.560;2023-06-22T02:33:35;5.80;;;3.83;;
10719;SDS011;5411;58.386;15.560;2023-06-22T02:36:04;4.97;;;3.80;;
10719;SDS011;5411;58.386;15.560;2023-06-22T02:38:35;5.50;;;3.90;;
10719;SDS011;5411;58.386;15.560;2023-06-22T02:41:05;6.83;;;4.07;;
10719;SDS011;5411;58.386;15.560;2023-06-22T02:43:38;5.37;;;3.80;;
10719;SDS011;5411;58.386;15.560;2023-06-22T02:46:08;8.27;;;4.40;;
10719;SDS011;5411;58.386;15.560;2023-06-22T02:48:40;6.37;;;3.83;;
10719;SDS011;5411;58.386;15.560;2023-06-22T02:51:11;7.90;;;4.47;;
10719;SDS011;5411;58.386;15.560;2023-06-22T02:53:44;4.77;;;4.37;;
10719;SDS011;5411;58.386;15.560;2023-06-22T02:56:16;4.57;;;4.10;;
10719;SDS011;5411;58.386;15.560;2023-06-22T02:58:44;6.33;;;4.40;;
10719;SDS011;5411;58.386;15.560;2023-06-22T03:01:14;5.13;;;3.73;;
10719;SDS011;5411;58.386;15.560;2023-06-22T03:03:42;6.10;;;4.60;;
10719;SDS011;5411;58.386;15.560;2023-06-22T03:06:13;4.77;;;3.90;;
10719;SDS011;5411;58.386;15.560;2023-06-22T03:08:41;6.53;;;3.90;;
10719;SDS011;5411;58.386;15.560;2023-06-22T03:11:10;7.53;;;4.67;;
10719;SDS011;5411;58.386;15.560;2023-06-22T03:13:41;5.87;;;4.27;;
10719;SDS011;5411;58.386;15.560;2023-06-22T03:16:10;6.97;;;3.90;;
10719;SDS011;5411;58.386;15.560;2023-06-22T03:18:40;5.77;;;3.90;;
10719;SDS011;5411;58.386;15.560;2023-06-22T03:21:09;5.17;;;4.23;;
10719;SDS011;5411;58.386;15.560;2023-06-22T03:23:38;6.60;;;4.37;;
10719;SDS011;5411;58.386;15.560;2023-06-22T03:26:06;6.20;;;4.10;;
10719;SDS011;5411;58.386;15.560;2023-06-22T03:28:36;4.93;;;4.37;;
10719;SDS011;5411;58.386;15.560;2023-06-22T03:31:07;7.00;;;4.80;;
10719;SDS011;5411;58.386;15.560;2023-06-22T03:33:36;5.80;;;4.20;;
10719;SDS011;5411;58.386;15.560;2023-06-22T03:36:05;8.93;;;4.63;;
10719;SDS011;5411;58.386;15.560;2023-06-22T03:38:35;6.37;;;4.53;;
10719;SDS011;5411;58.386;15.560;2023-06-22T03:41:10;6.47;;;4.33;;
10719;SDS011;5411;58.386;15.560;2023-06-22T03:43:41;8.50;;;4.60;;
10719;SDS011;5411;58.386;15.560;2023-06-22T03:46:10;7.60;;;4.70;;
10719;SDS011;5411;58.386;15.560;2023-06-22T03:48:38;5.30;;;4.57;;
10719;SDS011;5411;58.386;15.560;2023-06-22T03:51:08;5.83;;;4.33;;
10719;SDS011;5411;58.386;15.560;2023-06-22T03:53:36;5.50;;;4.53;;
10719;SDS011;5411;58.386;15.560;2023-06-22T03:56:08;7.57;;;4.90;;
10719;SDS011;5411;58.386;15.560;2023-06-22T03:58:37;5.97;;;4.80;;
10719;SDS011;5411;58.386;15.560;2023-06-22T04:01:09;5.63;;;4.87;;
10719;SDS011;5411;58.386;15.560;2023-06-22T04:03:39;9.10;;;5.40;;
10719;SDS011;5411;58.386;15.560;2023-06-22T04:06:10;8.00;;;5.20;;
10719;SDS011;5411;58.386;15.560;2023-06-22T04:08:38;6.57;;;5.47;;
10719;SDS011;5411;58.386;15.560;2023-06-22T04:11:07;8.17;;;5.27;;
10719;SDS011;5411;58.386;15.560;2023-06-22T04:13:38;8.93;;;5.70;;
10719;SDS011;5411;58.386;15.560;2023-06-22T04:16:09;6.10;;;5.27;;
10719;SDS011;5411;58.386;15.560;2023-06-22T04:18:37;8.97;;;5.03;;
10719;SDS011;5411;58.386;15.560;2023-06-22T04:21:07;6.57;;;5.27;;
10719;SDS011;5411;58.386;15.560;2023-06-22T04:23:38;10.53;;;5.80;;
10719;SDS011;5411;58.386;15.560;2023-06-22T04:26:10;7.23;;;5.57;;
10719;SDS011;5411;58.386;15.560;2023-06-22T04:28:39;7.30;;;5.33;;
10719;SDS011;5411;58.386;15.560;2023-06-22T04:31:07;6.63;;;4.37;;
10719;SDS011;5411;58.386;15.560;2023-06-22T04:33:37;7.47;;;5.03;;
10719;SDS011;5411;58.386;15.560;2023-06-22T04:36:07;9.40;;;5.57;;
10719;SDS011;5411;58.386;15.560;2023-06-22T04:38:38;6.23;;;4.67;;
10719;SDS011;5411;58.386;15.560;2023-06-22T04:41:11;6.73;;;5.10;;
10719;SDS011;5411;58.386;15.560;2023-06-22T04:43:50;7.27;;;5.60;;
10719;SDS011;5411;58.386;15.560;2023-06-22T04:46:22;7.67;;;5.13;;
10719;SDS011;5411;58.386;15.560;2023-06-22T04:48:50;7.73;;;5.50;;
10719;SDS011;5411;58.386;15.560;2023-06-22T04:51:30;5.47;;;4.47;;
10719;SDS011;5411;58.386;15.560;2023-06-22T04:54:03;6.17;;;4.73;;
10719;SDS011;5411;58.386;15.560;2023-06-22T04:56:32;6.77;;;5.00;;
10719;SDS011;5411;58.386;15.560;2023-06-22T04:59:01;5.93;;;5.13;;
10719;SDS011;5411;58.386;15.560;2023-06-22T05:01:31;7.30;;;5.30;;
10719;SDS011;5411;58.386;15.560;2023-06-22T05:04:04;10.13;;;5.33;;
10719;SDS011;5411;58.386;15.560;2023-06-22T05:06:35;5.80;;;5.13;;
10719;SDS011;5411;58.386;15.560;2023-06-22T05:09:11;8.43;;;6.07;;
10719;SDS011;5411;58.386;15.560;2023-06-22T05:11:39;6.63;;;5.20;;
10719;SDS011;5411;58.386;15.560;2023-06-22T05:14:09;7.20;;;5.53;;
10719;SDS011;5411;58.386;15.560;2023-06-22T05:16:38;8.53;;;5.17;;
10719;SDS011;5411;58.386;15.560;2023-06-22T05:19:09;7.83;;;5.47;;
10719;SDS011;5411;58.386;15.560;2023-06-22T05:21:40;6.90;;;4.93;;
10719;SDS011;5411;58.386;15.560;2023-06-22T05:24:13;8.27;;;5.70;;
10719;SDS011;5411;58.386;15.560;2023-06-22T05:26:42;6.40;;;5.30;;
10719;SDS011;5411;58.386;15.560;2023-06-22T05:29:13;6.43;;;5.27;;
10719;SDS011;5411;58.386;15.560;2023-06-22T05:31:44;6.53;;;5.07;;
10719;SDS011;5411;58.386;15.560;2023-06-22T05:34:13;7.70;;;5.40;;
10719;SDS011;5411;58.386;15.560;2023-06-22T05:36:42;9.77;;;5.83;;
10719;SDS011;5411;58.386;15.560;2023-06-22T05:39:11;6.70;;;5.50;;
10719;SDS011;5411;58.386;15.560;2023-06-22T05:41:44;7.60;;;4.90;;
10719;SDS011;5411;58.386;15.560;2023-06-22T05:44:14;7.10;;;5.40;;
10719;SDS011;5411;58.386;15.560;2023-06-22T05:46:42;10.47;;;5.70;;
10719;SDS011;5411;58.386;15.560;2023-06-22T05:49:13;7.23;;;5.80;;
10719;SDS011;5411;58.386;15.560;2023-06-22T05:51:42;8.90;;;5.43;;
10719;SDS011;5411;58.386;15.560;2023-06-22T05:54:11;5.53;;;5.03;;
10719;SDS011;5411;58.386;15.560;2023-06-22T05:56:40;8.07;;;4.83;;
10719;SDS011;5411;58.386;15.560;2023-06-22T05:59:13;5.23;;;4.73;;
10719;SDS011;5411;58.386;15.560;2023-06-22T06:01:44;5.87;;;5.17;;
10719;SDS011;5411;58.386;15.560;2023-06-22T06:04:17;9.07;;;5.90;;
10719;SDS011;5411;58.386;15.560;2023-06-22T06:06:46;7.73;;;4.93;;
10719;SDS011;5411;58.386;15.560;2023-06-22T06:09:17;7.70;;;4.97;;
10719;SDS011;5411;58.386;15.560;2023-06-22T06:11:48;7.27;;;5.23;;
10719;SDS011;5411;58.386;15.560;2023-06-22T06:14:18;6.10;;;4.23;;
10719;SDS011;5411;58.386;15.560;2023-06-22T06:16:48;8.63;;;5.50;;
10719;SDS011;5411;58.386;15.560;2023-06-22T06:19:16;11.30;;;5.53;;
10719;SDS011;5411;58.386;15.560;2023-06-22T06:21:45;8.20;;;5.20;;
10719;SDS011;5411;58.386;15.560;2023-06-22T06:24:13;8.80;;;5.00;;
10719;SDS011;5411;58.386;15.560;2023-06-22T06:26:42;9.30;;;5.00;;
10719;SDS011;5411;58.386;15.560;2023-06-22T06:29:10;7.37;;;5.03;;
10719;SDS011;5411;58.386;15.560;2023-06-22T06:31:46;9.43;;;5.33;;
10719;SDS011;5411;58.386;15.560;2023-06-22T06:34:19;6.40;;;4.57;;
10719;SDS011;5411;58.386;15.560;2023-06-22T06:36:53;7.63;;;5.00;;
10719;SDS011;5411;58.386;15.560;2023-06-22T06:39:21;5.80;;;4.80;;
10719;SDS011;5411;58.386;15.560;2023-06-22T06:41:53;6.30;;;5.10;;
10719;SDS011;5411;58.386;15.560;2023-06-22T06:44:21;7.43;;;4.93;;
10719;SDS011;5411;58.386;15.560;2023-06-22T06:46:58;7.60;;;4.67;;
10719;SDS011;5411;58.386;15.560;2023-06-22T06:49:26;5.03;;;4.47;;
10719;SDS011;5411;58.386;15.560;2023-06-22T06:51:59;8.67;;;4.73;;
10719;SDS011;5411;58.386;15.560;2023-06-22T06:54:28;5.93;;;4.40;;
10719;SDS011;5411;58.386;15.560;2023-06-22T06:56:58;7.93;;;4.50;;
10719;SDS011;5411;58.386;15.560;2023-06-22T06:59:29;6.13;;;5.03;;
10719;SDS011;5411;58.386;15.560;2023-06-22T07:02:02;6.73;;;4.90;;
10719;SDS011;5411;58.386;15.560;2023-06-22T07:04:33;7.80;;;4.60;;
10719;SDS011;5411;58.386;15.560;2023-06-22T07:07:01;9.63;;;4.07;;
10719;SDS011;5411;58.386;15.560;2023-06-22T07:09:33;7.30;;;4.47;;
10719;SDS011;5411;58.386;15.560;2023-06-22T07:12:03;8.87;;;4.97;;
10719;SDS011;5411;58.386;15.560;2023-06-22T07:14:32;7.23;;;4.87;;
10719;SDS011;5411;58.386;15.560;2023-06-22T07:17:05;6.03;;;4.23;;
10719;SDS011;5411;58.386;15.560;2023-06-22T07:19:33;6.80;;;4.60;;
10719;SDS011;5411;58.386;15.560;2023-06-22T07:22:04;6.00;;;4.67;;
10719;SDS011;5411;58.386;15.560;2023-06-22T07:24:33;6.13;;;4.57;;
10719;SDS011;5411;58.386;15.560;2023-06-22T07:27:04;5.43;;;4.20;;
10719;SDS011;5411;58.386;15.560;2023-06-22T07:29:34;7.17;;;4.27;;
10719;SDS011;5411;58.386;15.560;2023-06-22T07:32:09;6.63;;;4.47;;
10719;SDS011;5411;58.386;15.560;2023-06-22T07:34:38;6.47;;;4.20;;
10719;SDS011;5411;58.386;15.560;2023-06-22T07:37:07;6.93;;;4.10;;
10719;SDS011;5411;58.386;15.560;2023-06-22T07:39:40;6.90;;;5.27;;
10719;SDS011;5411;58.386;15.560;2023-06-22T07:42:17;8.33;;;4.13;;
10719;SDS011;5411;58.386;15.560;2023-06-22T07:44:49;6.93;;;4.23;;
10719;SDS011;5411;58.386;15.560;2023-06-22T07:47:19;7.23;;;4.70;;
10719;SDS011;5411;58.386;15.560;2023-06-22T07:49:52;8.13;;;4.50;;
10719;SDS011;5411;58.386;15.560;2023-06-22T07:52:21;5.40;;;3.73;;
10719;SDS011;5411;58.386;15.560;2023-06-22T07:54:52;8.33;;;4.53;;
10719;SDS011;5411;58.386;15.560;2023-06-22T07:57:21;6.50;;;4.50;;
10719;SDS011;5411;58.386;15.560;2023-06-22T07:59:51;5.40;;;4.90;;
10719;SDS011;5411;58.386;15.560;2023-06-22T08:02:24;4.57;;;4.17;;
10719;SDS011;5411;58.386;15.560;2023-06-22T08:05:00;4.43;;;3.93;;
10719;SDS011;5411;58.386;15.560;2023-06-22T08:07:45;9.13;;;4.83;;
10719;SDS011;5411;58.386;15.560;2023-06-22T08:10:14;6.17;;;4.33;;
10719;SDS011;5411;58.386;15.560;2023-06-22T08:12:43;7.67;;;4.00;;
10719;SDS011;5411;58.386;15.560;2023-06-22T08:15:11;6.53;;;4.67;;
10719;SDS011;5411;58.386;15.560;2023-06-22T08:17:43;5.10;;;4.60;;
10719;SDS011;5411;58.386;15.560;2023-06-22T08:20:12;5.10;;;4.23;;
10719;SDS011;5411;58.386;15.560;2023-06-22T08:22:43;6.97;;;4.07;;
10719;SDS011;5411;58.386;15.560;2023-06-22T08:25:14;4.80;;;4.20;;
10719;SDS011;5411;58.386;15.560;2023-06-22T08:27:45;6.67;;;4.07;;
10719;SDS011;5411;58.386;15.560;2023-06-22T08:30:17;9.17;;;4.93;;
10719;SDS011;5411;58.386;15.560;2023-06-22T08:32:47;6.23;;;3.87;;
10719;SDS011;5411;58.386;15.560;2023-06-22T08:35:15;8.20;;;4.53;;
10719;SDS011;5411;58.386;15.560;2023-06-22T08:37:44;7.77;;;4.30;;
10719;SDS011;5411;58.386;15.560;2023-06-22T08:40:21;7.20;;;4.53;;
10719;SDS011;5411;58.386;15.560;2023-06-22T08:42:49;7.13;;;4.33;;
10719;SDS011;5411;58.386;15.560;2023-06-22T08:45:18;6.27;;;4.20;;
10719;SDS011;5411;58.386;15.560;2023-06-22T08:47:51;6.27;;;4.50;;
10719;SDS011;5411;58.386;15.560;2023-06-22T08:50:19;5.60;;;3.80;;
10719;SDS011;5411;58.386;15.560;2023-06-22T08:52:48;11.00;;;4.13;;
10719;SDS011;5411;58.386;15.560;2023-06-22T08:55:26;5.40;;;4.37;;
10719;SDS011;5411;58.386;15.560;2023-06-22T08:57:55;7.13;;;4.40;;
10719;SDS011;5411;58.386;15.560;2023-06-22T09:00:24;5.57;;;4.03;;
10719;SDS011;5411;58.386;15.560;2023-06-22T09:02:57;9.17;;;3.70;;
10719;SDS011;5411;58.386;15.560;2023-06-22T09:05:30;6.37;;;3.67;;
10719;SDS011;5411;58.386;15.560;2023-06-22T09:07:59;7.60;;;4.30;;
10719;SDS011;5411;58.386;15.560;2023-06-22T09:10:28;5.63;;;3.97;;
10719;SDS011;5411;58.386;15.560;2023-06-22T09:12:57;5.23;;;3.97;;
10719;SDS011;5411;58.386;15.560;2023-06-22T09:15:27;5.53;;;4.07;;
10719;SDS011;5411;58.386;15.560;2023-06-22T09:17:58;6.03;;;4.10;;
10719;SDS011;5411;58.386;15.560;2023-06-22T09:20:28;5.57;;;3.60;;
10719;SDS011;5411;58.386;15.560;2023-06-22T09:22:57;5.90;;;3.80;;
10719;SDS011;5411;58.386;15.560;2023-06-22T09:25:26;5.73;;;3.80;;
10719;SDS011;5411;58.386;15.560;2023-06-22T09:27:56;5.07;;;3.60;;
10719;SDS011;5411;58.386;15.560;2023-06-22T09:30:25;5.10;;;4.17;;
10719;SDS011;5411;58.386;15.560;2023-06-22T09:32:54;7.67;;;3.87;;
10719;SDS011;5411;58.386;15.560;2023-06-22T09:35:29;6.87;;;3.97;;
10719;SDS011;5411;58.386;15.560;2023-06-22T09:37:57;5.33;;;4.03;;
10719;SDS011;5411;58.386;15.560;2023-06-22T09:40:29;4.27;;;3.63;;
10719;SDS011;5411;58.386;15.560;2023-06-22T09:42:59;7.30;;;3.73;;
10719;SDS011;5411;58.386;15.560;2023-06-22T09:45:28;8.47;;;4.17;;
10719;SDS011;5411;58.386;15.560;2023-06-22T09:47:57;7.97;;;4.13;;
10719;SDS011;5411;58.386;15.560;2023-06-22T09:50:26;6.90;;;4.37;;
10719;SDS011;5411;58.386;15.560;2023-06-22T09:52:57;5.73;;;4.07;;
10719;SDS011;5411;58.386;15.560;2023-06-22T09:55:26;4.97;;;3.50;;
10719;SDS011;5411;58.386;15.560;2023-06-22T09:57:54;5.37;;;3.43;;
10719;SDS011;5411;58.386;15.560;2023-06-22T10:00:25;7.33;;;4.00;;
10719;SDS011;5411;58.386;15.560;2023-06-22T10:02:54;6.17;;;3.80;;
10719;SDS011;5411;58.386;15.560;2023-06-22T10:05:27;6.93;;;4.63;;
10719;SDS011;5411;58.386;15.560;2023-06-22T10:08:00;7.40;;;4.27;;
10719;SDS011;5411;58.386;15.560;2023-06-22T10:10:30;6.43;;;3.60;;
10719;SDS011;5411;58.386;15.560;2023-06-22T10:13:02;4.57;;;3.40;;
10719;SDS011;5411;58.386;15.560;2023-06-22T10:15:35;5.03;;;3.73;;
10719;SDS011;5411;58.386;15.560;2023-06-22T10:18:03;4.50;;;3.60;;
10719;SDS011;5411;58.386;15.560;2023-06-22T10:20:32;4.13;;;3.73;;
10719;SDS011;5411;58.386;15.560;2023-06-22T10:23:03;4.93;;;4.07;;
10719;SDS011;5411;58.386;15.560;2023-06-22T10:25:32;6.87;;;3.83;;
10719;SDS011;5411;58.386;15.560;2023-06-22T10:28:01;5.63;;;4.13;;
10719;SDS011;5411;58.386;15.560;2023-06-22T10:30:29;5.60;;;3.20;;
10719;SDS011;5411;58.386;15.560;2023-06-22T10:32:58;5.03;;;3.53;;
10719;SDS011;5411;58.386;15.560;2023-06-22T10:35:26;5.33;;;3.53;;
10719;SDS011;5411;58.386;15.560;2023-06-22T10:37:55;5.97;;;3.70;;
10719;SDS011;5411;58.386;15.560;2023-06-22T10:40:28;5.20;;;3.47;;
10719;SDS011;5411;58.386;15.560;2023-06-22T10:42:56;4.67;;;3.60;;
10719;SDS011;5411;58.386;15.560;2023-06-22T10:45:25;4.30;;;3.57;;
10719;SDS011;5411;58.386;15.560;2023-06-22T10:47:54;6.40;;;3.70;;
10719;SDS011;5411;58.386;15.560;2023-06-22T10:50:26;4.90;;;3.47;;
10719;SDS011;5411;58.386;15.560;2023-06-22T10:52:57;5.33;;;3.60;;
10719;SDS011;5411;58.386;15.560;2023-06-22T10:55:27;3.80;;;3.40;;
10719;SDS011;5411;58.386;15.560;2023-06-22T10:58:12;4.60;;;3.70;;
10719;SDS011;5411;58.386;15.560;2023-06-22T11:00:41;3.93;;;3.53;;
10719;SDS011;5411;58.386;15.560;2023-06-22T11:03:09;3.57;;;3.00;;
10719;SDS011;5411;58.386;15.560;2023-06-22T11:05:40;4.40;;;3.10;;
10719;SDS011;5411;58.386;15.560;2023-06-22T11:08:08;5.50;;;3.10;;
10719;SDS011;5411;58.386;15.560;2023-06-22T11:10:40;4.30;;;3.27;;
10719;SDS011;5411;58.386;15.560;2023-06-22T11:13:09;4.03;;;3.13;;
10719;SDS011;5411;58.386;15.560;2023-06-22T11:15:38;5.33;;;3.40;;
10719;SDS011;5411;58.386;15.560;2023-06-22T11:18:09;5.27;;;3.93;;
10719;SDS011;5411;58.386;15.560;2023-06-22T11:20:37;5.50;;;3.43;;
10719;SDS011;5411;58.386;15.560;2023-06-22T11:23:07;3.33;;;2.90;;
10719;SDS011;5411;58.386;15.560;2023-06-22T11:25:36;4.70;;;3.57;;
10719;SDS011;5411;58.386;15.560;2023-06-22T11:28:06;5.07;;;3.80;;
10719;SDS011;5411;58.386;15.560;2023-06-22T11:30:34;5.03;;;3.40;;
10719;SDS011;5411;58.386;15.560;2023-06-22T11:33:04;4.53;;;3.63;;
10719;SDS011;5411;58.386;15.560;2023-06-22T11:35:32;3.87;;;3.50;;
10719;SDS011;5411;58.386;15.560;2023-06-22T11:38:03;9.70;;;4.20;;
10719;SDS011;5411;58.386;15.560;2023-06-22T11:40:35;4.83;;;3.60;;
10719;SDS011;5411;58.386;15.560;2023-06-22T11:43:07;4.50;;;3.20;;
10719;SDS011;5411;58.386;15.560;2023-06-22T11:45:35;4.63;;;3.37;;
10719;SDS011;5411;58.386;15.560;2023-06-22T11:48:05;5.07;;;4.07;;
10719;SDS011;5411;58.386;15.560;2023-06-22T11:50:34;8.27;;;3.43;;
10719;SDS011;5411;58.386;15.560;2023-06-22T11:53:03;6.17;;;3.57;;
10719;SDS011;5411;58.386;15.560;2023-06-22T11:55:34;6.37;;;3.57;;
10719;SDS011;5411;58.386;15.560;2023-06-22T11:58:02;4.60;;;3.70;;
10719;SDS011;5411;58.386;15.560;2023-06-22T12:00:35;4.67;;;3.10;;
10719;SDS011;5411;58.386;15.560;2023-06-22T12:03:16;4.57;;;3.40;;
10719;SDS011;5411;58.386;15.560;2023-06-22T12:05:45;4.40;;;3.20;;
10719;SDS011;5411;58.386;15.560;2023-06-22T12:08:13;5.53;;;3.73;;
10719;SDS011;5411;58.386;15.560;2023-06-22T12:10:42;4.83;;;3.77;;
10719;SDS011;5411;58.386;15.560;2023-06-22T12:13:12;4.93;;;4.00;;
10719;SDS011;5411;58.386;15.560;2023-06-22T12:15:44;5.83;;;3.67;;
10719;SDS011;5411;58.386;15.560;2023-06-22T12:18:13;5.10;;;3.70;;
10719;SDS011;5411;58.386;15.560;2023-06-22T12:20:42;4.47;;;3.33;;
10719;SDS011;5411;58.386;15.560;2023-06-22T12:23:11;4.60;;;3.17;;
10719;SDS011;5411;58.386;15.560;2023-06-22T12:25:44;7.37;;;3.70;;
10719;SDS011;5411;58.386;15.560;2023-06-22T12:28:13;4.87;;;3.00;;
10719;SDS011;5411;58.386;15.560;2023-06-22T12:30:41;9.47;;;3.80;;
10719;SDS011;5411;58.386;15.560;2023-06-22T12:33:11;5.70;;;3.90;;
10719;SDS011;5411;58.386;15.560;2023-06-22T12:35:41;3.77;;;3.30;;
10719;SDS011;5411;58.386;15.560;2023-06-22T12:38:09;4.47;;;2.93;;
10719;SDS011;5411;58.386;15.560;2023-06-22T12:40:39;4.00;;;3.33;;
10719;SDS011;5411;58.386;15.560;2023-06-22T12:43:08;3.80;;;3.17;;
10719;SDS011;5411;58.386;15.560;2023-06-22T12:45:38;4.60;;;3.27;;
10719;SDS011;5411;58.386;15.560;2023-06-22T12:48:07;6.10;;;3.40;;
10719;SDS011;5411;58.386;15.560;2023-06-22T12:50:40;3.90;;;3.50;;
10719;SDS011;5411;58.386;15.560;2023-06-22T12:53:08;3.53;;;3.17;;
10719;SDS011;5411;58.386;15.560;2023-06-22T12:55:37;5.30;;;3.13;;
10719;SDS011;5411;58.386;15.560;2023-06-22T12:58:05;5.50;;;3.40;;
10719;SDS011;5411;58.386;15.560;2023-06-22T13:00:38;5.07;;;3.30;;
10719;SDS011;5411;58.386;15.560;2023-06-22T13:03:07;3.67;;;3.30;;
10719;SDS011;5411;58.386;15.560;2023-06-22T13:05:36;4.07;;;2.93;;
10719;SDS011;5411;58.386;15.560;2023-06-22T13:08:07;4.87;;;3.00;;
10719;SDS011;5411;58.386;15.560;2023-06-22T13:10:38;6.23;;;3.30;;
10719;SDS011;5411;58.386;15.560;2023-06-22T13:13:08;4.00;;;3.07;;
10719;SDS011;5411;58.386;15.560;2023-06-22T13:15:38;3.50;;;2.70;;
10719;SDS011;5411;58.386;15.560;2023-06-22T13:18:06;8.23;;;3.70;;
10719;SDS011;5411;58.386;15.560;2023-06-22T13:20:36;4.53;;;3.07;;
10719;SDS011;5411;58.386;15.560;2023-06-22T13:23:07;3.33;;;3.03;;
10719;SDS011;5411;58.386;15.560;2023-06-22T13:25:35;3.60;;;3.10;;
10719;SDS011;5411;58.386;15.560;2023-06-22T13:28:04;3.97;;;3.27;;
10719;SDS011;5411;58.386;15.560;2023-06-22T13:30:38;3.80;;;3.47;;
10719;SDS011;5411;58.386;15.560;2023-06-22T13:33:07;3.30;;;2.83;;
10719;SDS011;5411;58.386;15.560;2023-06-22T13:35:36;5.00;;;3.10;;
10719;SDS011;5411;58.386;15.560;2023-06-22T13:38:05;3.83;;;3.50;;
10719;SDS011;5411;58.386;15.560;2023-06-22T13:40:36;4.20;;;3.30;;
10719;SDS011;5411;58.386;15.560;2023-06-22T13:43:07;4.93;;;3.20;;
10719;SDS011;5411;58.386;15.560;2023-06-22T13:45:35;3.87;;;3.27;;
10719;SDS011;5411;58.386;15.560;2023-06-22T13:48:04;5.83;;;3.17;;
10719;SDS011;5411;58.386;15.560;2023-06-22T13:50:33;3.47;;;3.17;;
10719;SDS011;5411;58.386;15.560;2023-06-22T13:53:02;4.40;;;3.17;;
10719;SDS011;5411;58.386;15.560;2023-06-22T13:55:32;5.13;;;3.23;;
10719;SDS011;5411;58.386;15.560;2023-06-22T13:58:01;3.70;;;3.40;;
10719;SDS011;5411;58.386;15.560;2023-06-22T14:00:29;3.70;;;3.30;;
10719;SDS011;5411;58.386;15.560;2023-06-22T14:02:58;7.30;;;3.80;;
10719;SDS011;5411;58.386;15.560;2023-06-22T14:05:27;4.97;;;3.90;;
10719;SDS011;5411;58.386;15.560;2023-06-22T14:07:58;3.73;;;3.20;;
10719;SDS011;5411;58.386;15.560;2023-06-22T14:10:39;3.43;;;2.73;;
10719;SDS011;5411;58.386;15.560;2023-06-22T14:13:07;5.00;;;2.93;;
10719;SDS011;5411;58.386;15.560;2023-06-22T14:15:41;3.43;;;3.13;;
10719;SDS011;5411;58.386;15.560;2023-06-22T14:18:15;3.90;;;2.80;;
10719;SDS011;5411;58.386;15.560;2023-06-22T14:20:43;4.70;;;2.80;;
10719;SDS011;5411;58.386;15.560;2023-06-22T14:23:12;5.73;;;2.80;;
10719;SDS011;5411;58.386;15.560;2023-06-22T14:25:42;3.27;;;2.97;;
10719;SDS011;5411;58.386;15.560;2023-06-22T14:28:11;4.47;;;2.90;;
10719;SDS011;5411;58.386;15.560;2023-06-22T14:30:40;4.30;;;3.00;;
10719;SDS011;5411;58.386;15.560;2023-06-22T14:33:08;3.87;;;2.77;;
10719;SDS011;5411;58.386;15.560;2023-06-22T14:35:37;4.00;;;3.20;;
10719;SDS011;5411;58.386;15.560;2023-06-22T14:38:12;3.80;;;3.07;;
10719;SDS011;5411;58.386;15.560;2023-06-22T14:40:48;4.23;;;2.90;;
10719;SDS011;5411;58.386;15.560;2023-06-22T14:43:37;3.30;;;2.93;;
10719;SDS011;5411;58.386;15.560;2023-06-22T14:46:06;6.23;;;3.40;;
10719;SDS011;5411;58.386;15.560;2023-06-22T14:48:37;4.67;;;2.90;;
10719;SDS011;5411;58.386;15.560;2023-06-22T14:51:06;4.57;;;3.20;;
10719;SDS011;5411;58.386;15.560;2023-06-22T14:53:43;3.37;;;2.80;;
10719;SDS011;5411;58.386;15.560;2023-06-22T14:56:13;3.63;;;3.27;;
10719;SDS011;5411;58.386;15.560;2023-06-22T14:58:42;4.73;;;3.23;;
10719;SDS011;5411;58.386;15.560;2023-06-22T15:01:13;3.97;;;3.57;;
10719;SDS011;5411;58.386;15.560;2023-06-22T15:03:41;5.83;;;2.80;;
10719;SDS011;5411;58.386;15.560;2023-06-22T15:06:12;4.07;;;3.10;;
10719;SDS011;5411;58.386;15.560;2023-06-22T15:08:41;3.20;;;2.90;;